createdAt,value
2022-07-31T00:00:46.434Z,98603.66
2022-07-31T00:01:59.925Z,98604.31
2022-07-31T00:03:09.523Z,98603.84
2022-07-31T00:04:15.678Z,98596.78
2022-07-31T00:05:19.671Z,98596.34
2022-07-31T00:06:23.756Z,98596.34
2022-07-31T00:07:27.848Z,98600.03
2022-07-31T00:08:31.935Z,98604.59
2022-07-31T00:09:52.878Z,98595.41
2022-07-31T00:10:57.965Z,98603.09
2022-07-31T00:12:01.659Z,98602.06
2022-07-31T00:13:05.667Z,98612.66
2022-07-31T00:14:10.655Z,98608.31
2022-07-31T00:15:15.328Z,98608.00
2022-07-31T00:16:19.303Z,98608.88
2022-07-31T00:17:23.239Z,98591.56
2022-07-31T00:18:26.976Z,98595.75
2022-07-31T00:19:30.899Z,98614.53
2022-07-31T00:20:34.944Z,98618.44
2022-07-31T00:21:38.799Z,98606.19
2022-07-31T00:22:44.612Z,98619.09
2022-07-31T00:23:48.527Z,98611.38
2022-07-31T00:24:52.272Z,98608.41
2022-07-31T00:25:56.782Z,98605.81
2022-07-31T00:27:01.500Z,98610.34
2022-07-31T00:28:07.363Z,98617.72
2022-07-31T00:29:11.300Z,98606.63
2022-07-31T00:30:19.993Z,98612.50
2022-07-31T00:31:24.548Z,98608.94
2022-07-31T00:32:28.404Z,98611.47
2022-07-31T00:33:32.162Z,98602.06
2022-07-31T00:34:35.907Z,98607.75
2022-07-31T00:35:39.743Z,98607.94
2022-07-31T00:36:43.805Z,98602.28
2022-07-31T00:37:47.585Z,98602.63
2022-07-31T00:38:51.587Z,98582.88
2022-07-31T00:39:55.476Z,98606.91
2022-07-31T00:40:59.485Z,98592.66
2022-07-31T00:42:03.441Z,98602.16
2022-07-31T00:43:07.283Z,98599.94
2022-07-31T00:44:15.032Z,98600.69
2022-07-31T00:45:19.026Z,98604.22
2022-07-31T00:46:32.926Z,98596.59
2022-07-31T00:47:39.308Z,98589.41
2022-07-31T00:48:43.288Z,98600.94
2022-07-31T00:49:48.041Z,98600.78
2022-07-31T00:50:51.895Z,98607.84
2022-07-31T00:51:55.726Z,98608.19
2022-07-31T00:52:59.531Z,98604.69
2022-07-31T00:54:03.442Z,98596.59
2022-07-31T00:55:08.317Z,98596.22
2022-07-31T00:56:12.242Z,98598.63
2022-07-31T00:57:16.211Z,98599.94
2022-07-31T00:58:21.261Z,98597.91
2022-07-31T00:59:25.179Z,98602.06
2022-07-31T01:00:29.167Z,98599.56
2022-07-31T01:01:33.644Z,98607.47
2022-07-31T01:02:38.548Z,98604.97
2022-07-31T01:03:51.109Z,98609.88
2022-07-31T01:04:54.906Z,98607.84
2022-07-31T01:05:58.690Z,98606.19
2022-07-31T01:07:02.798Z,98601.63
2022-07-31T01:08:06.984Z,98601.16
2022-07-31T01:09:10.975Z,98602.06
2022-07-31T01:10:31.076Z,98601.59
2022-07-31T01:11:50.075Z,98591.78
2022-07-31T01:13:05.718Z,98602.91
2022-07-31T01:14:13.210Z,98601.41
2022-07-31T01:15:19.299Z,98595.69
2022-07-31T01:16:29.261Z,98588.53
2022-07-31T01:17:35.723Z,98599.72
2022-07-31T01:18:42.678Z,98604.56
2022-07-31T01:19:50.099Z,98606.25
2022-07-31T01:21:00.537Z,98602.72
2022-07-31T01:22:50.298Z,98596.97
2022-07-31T01:24:32.031Z,98598.81
2022-07-31T01:26:02.297Z,98595.75
2022-07-31T01:27:49.456Z,98601.53
2022-07-31T01:28:59.367Z,98591.38
2022-07-31T01:30:05.755Z,98599.03
2022-07-31T01:31:27.879Z,98595.84
2022-07-31T01:32:49.648Z,98589.97
2022-07-31T01:34:10.904Z,98590.50
2022-07-31T01:35:31.117Z,98595.50
2022-07-31T01:36:42.278Z,98588.94
2022-07-31T01:38:04.805Z,98588.94
2022-07-31T01:39:08.795Z,98590.13
2022-07-31T01:40:17.332Z,98593.34
2022-07-31T01:41:30.833Z,98592.13
2022-07-31T01:42:41.092Z,98593.78
2022-07-31T01:43:49.483Z,98594.63
2022-07-31T01:45:00.749Z,98579.34
2022-07-31T01:46:07.223Z,98586.19
2022-07-31T01:47:17.228Z,98591.09
2022-07-31T01:48:22.811Z,98586.09
2022-07-31T01:49:28.785Z,98590.25
2022-07-31T01:50:42.315Z,98570.63
2022-07-31T01:51:48.897Z,98583.19
2022-07-31T01:52:54.680Z,98586.09
2022-07-31T01:54:00.527Z,98584.03
2022-07-31T01:55:09.550Z,98574.91
2022-07-31T01:56:18.140Z,98579.97
2022-07-31T01:57:26.084Z,98575.75
2022-07-31T01:58:35.453Z,98574.09
2022-07-31T01:59:44.763Z,98579.97
2022-07-31T02:00:54.428Z,98574.38
2022-07-31T02:02:01.341Z,98579.78
2022-07-31T02:03:09.912Z,98579.47
2022-07-31T02:04:16.701Z,98576.44
2022-07-31T02:05:21.965Z,98581.16
2022-07-31T02:06:27.518Z,98573.91
2022-07-31T02:07:31.770Z,98575.41
2022-07-31T02:08:37.291Z,98570.00
2022-07-31T02:09:52.278Z,98569.19
2022-07-31T02:11:03.579Z,98568.16
2022-07-31T02:12:12.260Z,98570.38
2022-07-31T02:13:18.059Z,98564.63
2022-07-31T02:14:24.506Z,98558.75
2022-07-31T02:15:31.121Z,98558.41
2022-07-31T02:16:37.936Z,98553.00
2022-07-31T02:17:46.776Z,98559.22
2022-07-31T02:18:54.150Z,98556.72
2022-07-31T02:20:02.107Z,98545.47
2022-07-31T02:21:06.106Z,98542.13
2022-07-31T02:22:09.910Z,98557.19
2022-07-31T02:23:14.264Z,98544.91
2022-07-31T02:24:18.291Z,98548.25
2022-07-31T02:25:22.214Z,98553.84
2022-07-31T02:26:30.535Z,98549.91
2022-07-31T02:27:54.381Z,98544.91
2022-07-31T02:29:02.839Z,98548.72
2022-07-31T02:30:08.039Z,98541.84
2022-07-31T02:31:17.092Z,98544.91
2022-07-31T02:32:23.421Z,98541.00
2022-07-31T02:33:29.577Z,98532.19
2022-07-31T02:34:36.408Z,98545.19
2022-07-31T02:35:45.773Z,98543.69
2022-07-31T02:36:53.728Z,98536.44
2022-07-31T02:37:58.762Z,98544.53
2022-07-31T02:39:03.995Z,98543.50
2022-07-31T02:40:11.963Z,98544.72
2022-07-31T02:41:17.556Z,98539.53
2022-07-31T02:42:23.081Z,98534.03
2022-07-31T02:43:28.843Z,98543.25
2022-07-31T02:44:35.028Z,98539.53
2022-07-31T02:45:40.820Z,98538.03
2022-07-31T02:46:45.717Z,98543.88
2022-07-31T02:47:51.073Z,98543.06
2022-07-31T02:48:57.055Z,98537.66
2022-07-31T02:50:02.526Z,98546.09
2022-07-31T02:51:07.187Z,98544.25
2022-07-31T02:52:13.348Z,98530.31
2022-07-31T02:53:17.450Z,98536.53
2022-07-31T02:54:21.604Z,98546.84
2022-07-31T02:55:26.780Z,98545.81
2022-07-31T02:56:33.293Z,98539.59
2022-07-31T02:57:37.325Z,98535.72
2022-07-31T02:58:42.949Z,98538.41
2022-07-31T02:59:46.664Z,98548.34
2022-07-31T03:01:04.918Z,98529.53
2022-07-31T03:02:09.169Z,98533.72
2022-07-31T03:03:12.905Z,98535.50
2022-07-31T03:04:16.552Z,98545.09
2022-07-31T03:05:21.767Z,98542.56
2022-07-31T03:06:25.571Z,98540.06
2022-07-31T03:07:29.397Z,98545.47
2022-07-31T03:08:33.276Z,98527.81
2022-07-31T03:09:38.140Z,98545.47
2022-07-31T03:10:42.484Z,98528.47
2022-07-31T03:11:47.068Z,98538.84
2022-07-31T03:12:54.546Z,98531.34
2022-07-31T03:14:02.186Z,98536.53
2022-07-31T03:15:16.647Z,98531.50
2022-07-31T03:16:23.900Z,98513.19
2022-07-31T03:17:38.170Z,98517.34
2022-07-31T03:18:46.327Z,98531.44
2022-07-31T03:19:52.817Z,98528.06
2022-07-31T03:20:57.679Z,98526.03
2022-07-31T03:22:02.883Z,98522.53
2022-07-31T03:23:07.255Z,98527.06
2022-07-31T03:24:12.193Z,98524.72
2022-07-31T03:25:21.934Z,98528.06
2022-07-31T03:26:26.732Z,98516.66
2022-07-31T03:27:30.950Z,98521.72
2022-07-31T03:28:36.160Z,98524.41
2022-07-31T03:29:43.674Z,98516.16
2022-07-31T03:30:56.092Z,98521.41
2022-07-31T03:32:01.496Z,98509.78
2022-07-31T03:33:06.898Z,98515.16
2022-07-31T03:34:12.166Z,98492.28
2022-07-31T03:35:16.349Z,98472.47
2022-07-31T03:36:20.248Z,98518.69
2022-07-31T03:37:24.213Z,98519.72
2022-07-31T03:38:38.534Z,98513.81
2022-07-31T03:39:46.300Z,98525.13
2022-07-31T03:40:50.190Z,98517.19
2022-07-31T03:41:56.881Z,98513.63
2022-07-31T03:43:03.594Z,98526.28
2022-07-31T03:44:09.294Z,98517.53
2022-07-31T03:45:17.737Z,98508.63
2022-07-31T03:46:24.916Z,98526.66
2022-07-31T03:47:29.350Z,98514.03
2022-07-31T03:48:33.846Z,98520.06
2022-07-31T03:49:39.051Z,98519.03
2022-07-31T03:50:45.329Z,98523.78
2022-07-31T03:51:49.424Z,98504.16
2022-07-31T03:52:53.652Z,98524.25
2022-07-31T03:53:57.543Z,98509.00
2022-07-31T03:55:01.949Z,98520.56
2022-07-31T03:56:07.831Z,98524.94
2022-07-31T03:57:12.505Z,98521.00
2022-07-31T03:58:19.379Z,98516.44
2022-07-31T03:59:27.593Z,98524.94
2022-07-31T04:00:34.949Z,98505.00
2022-07-31T04:01:58.212Z,98520.72
2022-07-31T04:03:08.792Z,98520.56
2022-07-31T04:04:13.781Z,98515.34
2022-07-31T04:05:17.676Z,98520.06
2022-07-31T04:06:21.490Z,98519.00
2022-07-31T04:07:25.728Z,98526.03
2022-07-31T04:08:29.871Z,98523.53
2022-07-31T04:09:33.895Z,98506.41
2022-07-31T04:10:38.486Z,98523.34
2022-07-31T04:11:42.707Z,98527.72
2022-07-31T04:12:46.700Z,98521.84
2022-07-31T04:13:52.550Z,98526.03
2022-07-31T04:14:56.464Z,98532.28
2022-07-31T04:16:00.205Z,98522.97
2022-07-31T04:17:04.070Z,98528.16
2022-07-31T04:18:07.820Z,98525.31
2022-07-31T04:19:11.525Z,98524.28
2022-07-31T04:20:15.737Z,98526.13
2022-07-31T04:21:19.620Z,98530.94
2022-07-31T04:22:23.386Z,98530.13
2022-07-31T04:23:32.554Z,98532.63
2022-07-31T04:24:36.646Z,98528.94
2022-07-31T04:25:40.548Z,98535.69
2022-07-31T04:26:45.669Z,98531.16
2022-07-31T04:27:50.419Z,98539.88
2022-07-31T04:28:54.311Z,98523.59
2022-07-31T04:29:58.511Z,98537.19
2022-07-31T04:31:02.190Z,98542.41
2022-07-31T04:32:06.603Z,98536.63
2022-07-31T04:33:10.506Z,98540.81
2022-07-31T04:34:14.533Z,98545.56
2022-07-31T04:35:18.678Z,98541.19
2022-07-31T04:36:29.597Z,98529.47
2022-07-31T04:37:34.914Z,98544.53
2022-07-31T04:38:38.578Z,98546.38
2022-07-31T04:39:42.808Z,98552.41
2022-07-31T04:40:46.492Z,98559.50
2022-07-31T04:41:51.904Z,98547.41
2022-07-31T04:42:56.438Z,98554.47
2022-07-31T04:44:00.242Z,98565.66
2022-07-31T04:45:04.652Z,98561.94
2022-07-31T04:46:17.352Z,98563.59
2022-07-31T04:47:21.884Z,98565.91
2022-07-31T04:48:25.622Z,98561.53
2022-07-31T04:49:31.091Z,98562.94
2022-07-31T04:50:36.839Z,98564.97
2022-07-31T04:51:42.556Z,98564.97
2022-07-31T04:52:47.122Z,98571.50
2022-07-31T04:53:52.400Z,98570.66
2022-07-31T04:54:56.020Z,98556.63
2022-07-31T04:56:18.149Z,98571.88
2022-07-31T04:57:22.341Z,98571.88
2022-07-31T04:58:26.679Z,98561.72
2022-07-31T04:59:59.150Z,98582.84
2022-07-31T05:00:54.397Z,98581.00
2022-07-31T05:01:58.271Z,98592.78
2022-07-31T05:03:02.076Z,98571.19
2022-07-31T05:04:08.361Z,98586.63
2022-07-31T05:05:12.142Z,98584.97
2022-07-31T05:06:16.009Z,98575.13
2022-07-31T05:07:20.071Z,98595.41
2022-07-31T05:08:23.689Z,98590.00
2022-07-31T05:09:33.320Z,98589.34
2022-07-31T05:10:58.639Z,98594.81
2022-07-31T05:12:03.070Z,98582.28
2022-07-31T05:13:07.087Z,98588.78
2022-07-31T05:14:14.107Z,98596.69
2022-07-31T05:15:18.603Z,98594.00
2022-07-31T05:16:24.093Z,98597.31
2022-07-31T05:17:28.035Z,98599.38
2022-07-31T05:18:33.070Z,98601.78
2022-07-31T05:19:37.026Z,98602.63
2022-07-31T05:20:40.745Z,98600.78
2022-07-31T05:21:53.133Z,98593.69
2022-07-31T05:22:58.501Z,98607.19
2022-07-31T05:24:04.703Z,98599.47
2022-07-31T05:26:45.713Z,98601.63
2022-07-31T05:27:50.144Z,98606.72
2022-07-31T05:28:58.428Z,98605.78
2022-07-31T05:30:02.657Z,98608.94
2022-07-31T05:31:08.690Z,98606.81
2022-07-31T05:32:12.653Z,98601.94
2022-07-31T05:33:16.684Z,98612.91
2022-07-31T05:34:20.485Z,98607.41
2022-07-31T05:35:24.107Z,98610.09
2022-07-31T05:36:28.244Z,98606.94
2022-07-31T05:37:34.005Z,98610.19
2022-07-31T05:38:38.031Z,98605.16
2022-07-31T05:39:41.754Z,98612.22
2022-07-31T05:40:45.516Z,98596.13
2022-07-31T05:41:51.138Z,98620.47
2022-07-31T05:42:55.568Z,98624.03
2022-07-31T05:43:59.595Z,98625.03
2022-07-31T05:45:03.415Z,98622.31
2022-07-31T05:46:07.665Z,98623.00
2022-07-31T05:47:11.501Z,98616.59
2022-07-31T05:48:18.503Z,98623.00
2022-07-31T05:49:22.532Z,98614.72
2022-07-31T05:50:26.433Z,98617.25
2022-07-31T05:51:31.207Z,98606.34
2022-07-31T05:52:35.003Z,98619.94
2022-07-31T05:53:40.500Z,98611.22
2022-07-31T05:54:48.010Z,98620.56
2022-07-31T05:55:52.149Z,98602.19
2022-07-31T05:56:56.661Z,98618.72
2022-07-31T05:58:01.038Z,98617.53
2022-07-31T05:59:04.843Z,98609.16
2022-07-31T06:00:10.049Z,98619.41
2022-07-31T06:01:15.257Z,98618.56
2022-07-31T06:02:19.226Z,98620.22
2022-07-31T06:03:25.532Z,98618.72
2022-07-31T06:04:29.585Z,98618.19
2022-07-31T06:05:34.579Z,98617.53
2022-07-31T06:06:38.502Z,98622.94
2022-07-31T06:07:47.204Z,98620.03
2022-07-31T06:08:55.642Z,98622.56
2022-07-31T06:10:00.844Z,98617.16
2022-07-31T06:11:04.962Z,98610.47
2022-07-31T06:12:09.384Z,98612.03
2022-07-31T06:13:14.980Z,98621.41
2022-07-31T06:14:19.291Z,98628.41
2022-07-31T06:15:23.476Z,98613.25
2022-07-31T06:16:27.372Z,98627.00
2022-07-31T06:17:44.682Z,98625.81
2022-07-31T06:18:48.687Z,98632.69
2022-07-31T06:19:52.925Z,98625.44
2022-07-31T06:20:56.905Z,98592.41
2022-07-31T06:22:00.890Z,98622.75
2022-07-31T06:23:22.496Z,98615.69
2022-07-31T06:24:27.212Z,98622.94
2022-07-31T06:25:38.738Z,98619.22
2022-07-31T06:26:42.706Z,98611.22
2022-07-31T06:27:55.149Z,98620.56
2022-07-31T06:29:04.636Z,98628.84
2022-07-31T06:30:10.027Z,98623.84
2022-07-31T06:31:23.395Z,98624.31
2022-07-31T06:32:27.267Z,98618.91
2022-07-31T06:33:37.746Z,98626.66
2022-07-31T06:34:43.215Z,98623.28
2022-07-31T06:35:46.925Z,98622.63
2022-07-31T06:36:51.414Z,98627.00
2022-07-31T06:37:55.239Z,98625.13
2022-07-31T06:38:58.986Z,98624.41
2022-07-31T06:40:04.445Z,98635.00
2022-07-31T06:41:08.505Z,98634.72
2022-07-31T06:42:19.573Z,98637.59
2022-07-31T06:43:23.521Z,98632.50
2022-07-31T06:44:27.722Z,98632.50
2022-07-31T06:45:50.814Z,98633.97
2022-07-31T06:46:55.493Z,98638.19
2022-07-31T06:47:59.336Z,98633.97
2022-07-31T06:49:06.883Z,98644.41
2022-07-31T06:50:12.983Z,98640.22
2022-07-31T06:51:32.627Z,98648.78
2022-07-31T06:52:36.956Z,98648.41
2022-07-31T06:53:40.688Z,98642.53
2022-07-31T06:54:45.360Z,98645.44
2022-07-31T06:55:49.061Z,98642.34
2022-07-31T06:56:53.182Z,98636.31
2022-07-31T06:57:57.674Z,98643.56
2022-07-31T06:59:02.530Z,98639.22
2022-07-31T07:00:15.223Z,98641.41
2022-07-31T07:01:24.504Z,98642.94
2022-07-31T07:02:28.411Z,98640.38
2022-07-31T07:03:32.865Z,98644.94
2022-07-31T07:05:04.372Z,98642.63
2022-07-31T07:06:03.584Z,98646.81
2022-07-31T07:07:07.433Z,98639.09
2022-07-31T07:08:11.155Z,98647.00
2022-07-31T07:09:15.029Z,98649.88
2022-07-31T07:10:18.957Z,98643.66
2022-07-31T07:11:22.865Z,98650.72
2022-07-31T07:12:27.093Z,98656.16
2022-07-31T07:13:44.903Z,98653.94
2022-07-31T07:14:49.396Z,98652.25
2022-07-31T07:15:53.943Z,98647.25
2022-07-31T07:16:57.639Z,98654.84
2022-07-31T07:18:01.472Z,98656.53
2022-07-31T07:19:05.581Z,98653.66
2022-07-31T07:20:10.139Z,98659.41
2022-07-31T07:21:14.120Z,98650.47
2022-07-31T07:22:18.098Z,98664.59
2022-07-31T07:23:35.039Z,98658.38
2022-07-31T07:24:39.162Z,98654.84
2022-07-31T07:25:43.214Z,98661.38
2022-07-31T07:26:47.016Z,98658.69
2022-07-31T07:27:50.847Z,98656.81
2022-07-31T07:28:54.600Z,98652.66
2022-07-31T07:29:59.915Z,98660.53
2022-07-31T07:31:05.600Z,98664.06
2022-07-31T07:32:10.157Z,98649.84
2022-07-31T07:33:14.221Z,98664.78
2022-07-31T07:34:38.038Z,98664.44
2022-07-31T07:35:42.981Z,98667.38
2022-07-31T07:36:46.777Z,98667.03
2022-07-31T07:37:50.698Z,98664.97
2022-07-31T07:38:55.932Z,98668.69
2022-07-31T07:40:03.676Z,98670.72
2022-07-31T07:41:07.951Z,98675.75
2022-07-31T07:42:11.797Z,98667.66
2022-07-31T07:43:15.920Z,98669.72
2022-07-31T07:44:19.719Z,98658.81
2022-07-31T07:45:24.547Z,98678.69
2022-07-31T07:46:28.563Z,98681.22
2022-07-31T07:47:53.750Z,98684.13
2022-07-31T07:48:56.142Z,98681.91
2022-07-31T07:50:00.678Z,98677.56
2022-07-31T07:51:04.582Z,98679.22
2022-07-31T07:52:08.487Z,98685.91
2022-07-31T07:53:13.504Z,98686.94
2022-07-31T07:54:17.437Z,98683.97
2022-07-31T07:55:21.331Z,98686.94
2022-07-31T07:56:25.278Z,98690.47
2022-07-31T07:57:29.896Z,98677.38
2022-07-31T07:58:33.752Z,98694.00
2022-07-31T07:59:37.615Z,98672.22
2022-07-31T08:00:41.597Z,98674.63
2022-07-31T08:01:45.485Z,98691.38
2022-07-31T08:03:02.814Z,98683.16
2022-07-31T08:04:13.768Z,98699.28
2022-07-31T08:05:17.887Z,98693.72
2022-07-31T08:06:23.556Z,98695.38
2022-07-31T08:07:42.782Z,98701.13
2022-07-31T08:08:46.903Z,98699.75
2022-07-31T08:09:50.575Z,98703.09
2022-07-31T08:10:54.776Z,98700.25
2022-07-31T08:11:59.489Z,98709.69
2022-07-31T08:13:03.617Z,98675.25
2022-07-31T08:14:07.613Z,98703.94
2022-07-31T08:15:12.921Z,98713.72
2022-07-31T08:16:16.988Z,98707.31
2022-07-31T08:17:21.382Z,98692.69
2022-07-31T08:18:27.246Z,98709.81
2022-07-31T08:19:32.299Z,98708.59
2022-07-31T08:20:38.880Z,98715.66
2022-07-31T08:21:42.868Z,98716.34
2022-07-31T08:22:47.028Z,98717.38
2022-07-31T08:23:52.886Z,98717.19
2022-07-31T08:24:57.337Z,98719.03
2022-07-31T08:26:01.129Z,98719.88
2022-07-31T08:27:39.578Z,98718.75
2022-07-31T08:28:49.894Z,98717.00
2022-07-31T08:30:00.972Z,98733.53
2022-07-31T08:31:05.499Z,98717.72
2022-07-31T08:32:09.350Z,98712.06
2022-07-31T08:33:13.359Z,98724.53
2022-07-31T08:34:31.013Z,98735.47
2022-07-31T08:35:35.911Z,98727.41
2022-07-31T08:36:42.374Z,98738.00
2022-07-31T08:37:52.613Z,98716.88
2022-07-31T08:39:08.281Z,98738.19
2022-07-31T08:40:22.121Z,98736.13
2022-07-31T08:41:26.350Z,98731.94
2022-07-31T08:42:30.420Z,98723.22
2022-07-31T08:44:01.472Z,98728.59
2022-07-31T08:44:58.128Z,98724.88
2022-07-31T08:46:03.324Z,98730.66
2022-07-31T08:47:15.307Z,98738.88
2022-07-31T08:48:25.484Z,98732.19
2022-07-31T08:49:33.631Z,98733.72
2022-07-31T08:50:40.589Z,98740.44
2022-07-31T08:51:51.699Z,98732.38
2022-07-31T08:53:00.294Z,98738.41
2022-07-31T08:54:10.930Z,98730.34
2022-07-31T08:55:24.877Z,98735.06
2022-07-31T08:56:40.656Z,98733.84
2022-07-31T08:57:51.059Z,98713.53
2022-07-31T08:58:57.366Z,98725.19
2022-07-31T09:00:01.466Z,98734.03
2022-07-31T09:01:06.256Z,98738.41
2022-07-31T09:02:15.629Z,98742.13
2022-07-31T09:03:20.409Z,98735.53
2022-07-31T09:04:26.012Z,98741.28
2022-07-31T09:05:41.816Z,98746.66
2022-07-31T09:06:46.879Z,98743.97
2022-07-31T09:07:50.773Z,98744.81
2022-07-31T09:08:57.243Z,98743.47
2022-07-31T09:10:01.757Z,98741.63
2022-07-31T09:11:15.461Z,98737.91
2022-07-31T09:12:34.839Z,98736.91
2022-07-31T09:13:39.297Z,98742.78
2022-07-31T09:14:49.699Z,98741.94
2022-07-31T09:15:59.423Z,98743.78
2022-07-31T09:17:07.680Z,98744.44
2022-07-31T09:18:22.427Z,98744.63
2022-07-31T09:19:54.133Z,98740.56
2022-07-31T09:21:05.930Z,98740.56
2022-07-31T09:22:31.436Z,98749.66
2022-07-31T09:23:48.502Z,98745.94
2022-07-31T09:24:53.340Z,98749.66
2022-07-31T09:26:06.212Z,98747.78
2022-07-31T09:27:10.775Z,98745.09
2022-07-31T09:28:14.789Z,98747.66
2022-07-31T09:29:18.517Z,98751.81
2022-07-31T09:30:22.379Z,98753.16
2022-07-31T09:31:33.872Z,98754.84
2022-07-31T09:32:37.512Z,98741.38
2022-07-31T09:33:47.084Z,98744.91
2022-07-31T09:34:50.811Z,98752.78
2022-07-31T09:35:55.084Z,98753.63
2022-07-31T09:37:16.527Z,98756.97
2022-07-31T09:38:21.292Z,98754.97
2022-07-31T09:39:27.158Z,98753.25
2022-07-31T09:40:37.545Z,98746.03
2022-07-31T09:42:01.733Z,98757.94
2022-07-31T09:43:25.659Z,98762.16
2022-07-31T09:44:41.707Z,98756.63
2022-07-31T09:45:49.195Z,98749.69
2022-07-31T09:46:52.996Z,98757.09
2022-07-31T09:48:12.582Z,98751.72
2022-07-31T09:49:17.714Z,98733.56
2022-07-31T09:50:24.745Z,98736.94
2022-07-31T09:51:42.511Z,98754.41
2022-07-31T09:52:46.242Z,98746.03
2022-07-31T09:53:56.738Z,98762.16
2022-07-31T09:55:15.780Z,98761.78
2022-07-31T09:56:35.328Z,98758.06
2022-07-31T09:57:54.696Z,98756.75
2022-07-31T09:58:59.506Z,98759.63
2022-07-31T10:00:06.637Z,98763.69
2022-07-31T10:01:13.311Z,98763.88
2022-07-31T10:02:20.678Z,98763.56
2022-07-31T10:03:26.969Z,98766.91
2022-07-31T10:04:31.390Z,98763.03
2022-07-31T10:05:38.335Z,98749.78
2022-07-31T10:06:43.892Z,98765.38
2022-07-31T10:07:49.373Z,98769.91
2022-07-31T10:08:55.733Z,98766.56
2022-07-31T10:10:01.133Z,98771.84
2022-07-31T10:11:16.406Z,98771.66
2022-07-31T10:12:22.233Z,98759.25
2022-07-31T10:13:26.511Z,98773.31
2022-07-31T10:14:40.213Z,98776.38
2022-07-31T10:15:48.803Z,98777.69
2022-07-31T10:16:59.205Z,98780.75
2022-07-31T10:18:05.885Z,98773.97
2022-07-31T10:19:14.202Z,98775.69
2022-07-31T10:20:23.699Z,98779.22
2022-07-31T10:21:42.028Z,98775.00
2022-07-31T10:23:09.392Z,98775.31
2022-07-31T10:24:13.218Z,98775.31
2022-07-31T10:25:28.929Z,98778.19
2022-07-31T10:26:57.718Z,98777.69
2022-07-31T10:27:58.486Z,98776.50
2022-07-31T10:29:03.692Z,98784.41
2022-07-31T10:30:09.123Z,98785.44
2022-07-31T10:31:15.010Z,98783.56
2022-07-31T10:32:19.675Z,98787.09
2022-07-31T10:33:42.972Z,98786.09
2022-07-31T10:34:48.871Z,98784.41
2022-07-31T10:36:20.046Z,98786.09
2022-07-31T10:37:43.485Z,98789.09
2022-07-31T10:39:08.476Z,98782.88
2022-07-31T10:40:24.838Z,98782.88
2022-07-31T10:41:46.669Z,98772.00
2022-07-31T10:43:03.309Z,98792.31
2022-07-31T10:44:28.068Z,98797.69
2022-07-31T10:45:32.078Z,98797.19
2022-07-31T10:46:36.342Z,98801.88
2022-07-31T10:47:48.045Z,98803.28
2022-07-31T10:48:54.354Z,98804.63
2022-07-31T10:49:58.671Z,98791.34
2022-07-31T10:51:12.866Z,98797.94
2022-07-31T10:52:33.686Z,98795.56
2022-07-31T10:53:51.665Z,98804.66
2022-07-31T10:55:02.215Z,98804.16
2022-07-31T10:56:13.767Z,98804.16
2022-07-31T10:57:26.967Z,98799.59
2022-07-31T10:58:31.176Z,98805.66
2022-07-31T10:59:35.299Z,98801.09
2022-07-31T11:00:40.666Z,98805.84
2022-07-31T11:01:55.277Z,98807.31
2022-07-31T11:02:59.147Z,98805.31
2022-07-31T11:04:04.992Z,98797.63
2022-07-31T11:05:16.571Z,98801.47
2022-07-31T11:06:21.778Z,98816.59
2022-07-31T11:07:25.978Z,98807.50
2022-07-31T11:08:47.924Z,98808.72
2022-07-31T11:09:53.222Z,98807.50
2022-07-31T11:11:03.477Z,98812.06
2022-07-31T11:12:21.409Z,98808.53
2022-07-31T11:13:36.878Z,98810.06
2022-07-31T11:14:41.039Z,98810.91
2022-07-31T11:15:44.779Z,98809.41
2022-07-31T11:16:53.083Z,98809.88
2022-07-31T11:18:21.159Z,98806.00
2022-07-31T11:19:21.618Z,98800.63
2022-07-31T11:20:30.009Z,98812.41
2022-07-31T11:21:41.916Z,98814.75
2022-07-31T11:23:03.472Z,98813.53
2022-07-31T11:24:22.332Z,98811.69
2022-07-31T11:25:30.297Z,98807.50
2022-07-31T11:26:41.253Z,98814.88
2022-07-31T11:27:46.742Z,98814.22
2022-07-31T11:28:50.710Z,98812.53
2022-07-31T11:29:58.579Z,98816.94
2022-07-31T11:31:09.985Z,98811.56
2022-07-31T11:32:16.256Z,98826.19
2022-07-31T11:33:47.538Z,98818.78
2022-07-31T11:34:55.355Z,98822.47
2022-07-31T11:36:30.094Z,98817.44
2022-07-31T11:37:56.398Z,98825.16
2022-07-31T11:38:57.899Z,98811.69
2022-07-31T11:40:03.800Z,98820.78
2022-07-31T11:41:10.143Z,98817.44
2022-07-31T11:42:15.912Z,98819.47
2022-07-31T11:43:27.449Z,98819.47
2022-07-31T11:44:31.282Z,98821.19
2022-07-31T11:45:53.431Z,98822.88
2022-07-31T11:46:58.494Z,98821.50
2022-07-31T11:48:11.465Z,98802.69
2022-07-31T11:49:23.748Z,98811.44
2022-07-31T11:50:49.863Z,98818.28
2022-07-31T11:52:02.020Z,98816.94
2022-07-31T11:53:07.287Z,98819.13
2022-07-31T11:54:11.293Z,98813.41
2022-07-31T11:55:16.865Z,98809.69
2022-07-31T11:56:21.868Z,98814.69
2022-07-31T11:57:52.363Z,98817.75
2022-07-31T11:58:58.630Z,98818.47
2022-07-31T12:00:29.369Z,98820.78
2022-07-31T12:01:34.042Z,98813.78
2022-07-31T12:02:44.610Z,98817.47
2022-07-31T12:03:50.905Z,98826.03
2022-07-31T12:04:54.903Z,98811.25
2022-07-31T12:05:59.501Z,98818.31
2022-07-31T12:07:09.604Z,98816.50
2022-07-31T12:08:14.809Z,98825.41
2022-07-31T12:10:00.465Z,98819.69
2022-07-31T12:10:43.557Z,98818.00
2022-07-31T12:11:47.326Z,98826.72
2022-07-31T12:12:51.350Z,98815.84
2022-07-31T12:13:55.473Z,98834.31
2022-07-31T12:14:59.404Z,98833.97
2022-07-31T12:16:11.434Z,98816.16
2022-07-31T12:17:22.944Z,98831.28
2022-07-31T12:18:29.273Z,98835.66
2022-07-31T12:19:37.421Z,98830.72
2022-07-31T12:21:03.494Z,98830.91
2022-07-31T12:22:15.073Z,98838.16
2022-07-31T12:23:41.010Z,98829.41
2022-07-31T12:24:45.150Z,98836.94
2022-07-31T12:25:49.576Z,98836.94
2022-07-31T12:27:00.870Z,98831.59
2022-07-31T12:28:05.090Z,98839.00
2022-07-31T12:29:12.161Z,98825.19
2022-07-31T12:30:18.405Z,98840.34
2022-07-31T12:31:22.335Z,98823.34
2022-07-31T12:32:27.865Z,98838.94
2022-07-31T12:33:42.775Z,98835.41
2022-07-31T12:34:46.666Z,98838.75
2022-07-31T12:35:55.771Z,98842.69
2022-07-31T12:37:16.187Z,98844.50
2022-07-31T12:38:47.640Z,98839.31
2022-07-31T12:40:00.103Z,98842.28
2022-07-31T12:41:05.858Z,98837.75
2022-07-31T12:42:09.721Z,98841.97
2022-07-31T12:43:13.711Z,98826.63
2022-07-31T12:44:21.564Z,98837.22
2022-07-31T12:45:31.116Z,98837.34
2022-07-31T12:46:39.676Z,98839.53
2022-07-31T12:47:43.883Z,98836.47
2022-07-31T12:48:48.134Z,98835.63
2022-07-31T12:49:52.972Z,98838.78
2022-07-31T12:50:57.431Z,98833.78
2022-07-31T12:52:01.238Z,98838.47
2022-07-31T12:53:05.487Z,98835.13
2022-07-31T12:54:10.290Z,98835.94
2022-07-31T12:55:17.202Z,98842.34
2022-07-31T12:56:21.523Z,98823.69
2022-07-31T12:57:25.970Z,98838.47
2022-07-31T12:58:29.914Z,98837.63
2022-07-31T12:59:33.875Z,98842.19
2022-07-31T13:00:40.197Z,98835.44
2022-07-31T13:01:44.626Z,98826.13
2022-07-31T13:02:49.285Z,98843.94
2022-07-31T13:03:53.100Z,98842.28
2022-07-31T13:04:57.884Z,98844.09
2022-07-31T13:06:01.801Z,98837.22
2022-07-31T13:07:06.699Z,98841.47
2022-07-31T13:08:10.614Z,98840.63
2022-07-31T13:09:14.665Z,98831.09
2022-07-31T13:10:23.945Z,98835.78
2022-07-31T13:11:46.629Z,98850.38
2022-07-31T13:12:53.168Z,98843.31
2022-07-31T13:13:58.189Z,98846.00
2022-07-31T13:15:02.357Z,98847.03
2022-07-31T13:16:07.412Z,98846.84
2022-07-31T13:17:11.615Z,98829.06
2022-07-31T13:18:15.731Z,98847.34
2022-07-31T13:19:20.323Z,98848.38